Time;durP1;ratioP1;P1;durP2;ratioP2;P2;SDS_P1;SDS_P2;PMS_P1;PMS_P2;Temp;Humidity;BMP_temperature;BMP_pressure;BME280_temperature;BME280_humidity;BME280_pressure;Samples;Min_cycle;Max_cycle;Signal;HPM_P1;HPM_P2
2023/03/18 00:02:19;;;;;;;15.45;6.25;;;;;;;4.05;65.39;101104.06;4954918;28;20101;-74
2023/03/18 00:04:46;;;;;;;18.85;5.68;;;;;;;4.08;65.31;101104.97;4979799;28;20053;-73
2023/03/18 00:07:15;;;;;;;17.65;6.00;;;;;;;4.05;65.21;101106.66;4982126;28;20057;-73
2023/03/18 00:09:41;;;;;;;17.33;5.70;;;;;;;4.08;65.03;101108.41;4981348;28;20098;-73
2023/03/18 00:12:09;;;;;;;18.10;5.72;;;;;;;4.09;65.08;101094.63;4980788;28;20050;-73
2023/03/18 00:14:36;;;;;;;14.43;5.97;;;;;;;4.09;65.27;101089.47;4972862;28;20046;-73
2023/03/18 00:17:03;;;;;;;16.48;6.93;;;;;;;4.09;65.13;101084.28;4983952;28;20068;-73
2023/03/18 00:19:31;;;;;;;14.23;6.45;;;;;;;4.10;65.27;101082.56;4979751;28;20483;-73
2023/03/18 00:21:58;;;;;;;21.42;7.38;;;;;;;4.09;65.18;101075.66;4983995;28;20038;-73
2023/03/18 00:24:27;;;;;;;18.92;7.43;;;;;;;4.12;65.37;101080.88;4970771;28;20050;-72
2023/03/18 00:26:54;;;;;;;10.60;4.18;;;;;;;4.12;65.16;101081.75;4983382;28;20101;-73
2023/03/18 00:29:21;;;;;;;19.35;6.53;;;;;;;4.13;65.28;101077.47;4981045;28;20050;-73
2023/03/18 00:31:48;;;;;;;16.27;7.30;;;;;;;4.12;65.15;101073.97;4974729;28;20046;-73
2023/03/18 00:34:16;;;;;;;23.42;7.38;;;;;;;4.14;65.21;101076.59;4974987;28;20054;-73
2023/03/18 00:36:44;;;;;;;20.50;8.05;;;;;;;4.14;65.05;101071.44;4983453;28;20054;-73
2023/03/18 00:39:12;;;;;;;19.13;6.70;;;;;;;4.14;65.32;101080.06;4974376;28;20093;-73
2023/03/18 00:41:40;;;;;;;17.33;6.97;;;;;;;4.17;65.07;101074.06;4983686;28;20038;-73
2023/03/18 00:44:08;;;;;;;20.90;6.28;;;;;;;4.16;65.04;101073.19;4984066;28;20161;-73
2023/03/18 00:46:37;;;;;;;17.88;4.03;;;;;;;4.17;65.49;101067.16;4970167;28;20054;-73
2023/03/18 00:49:06;;;;;;;17.60;6.43;;;;;;;4.18;65.66;101066.31;4983251;28;20120;-74
2023/03/18 00:51:34;;;;;;;15.82;7.45;;;;;;;4.19;65.14;101065.47;4989966;28;20053;-73
2023/03/18 00:54:05;;;;;;;17.90;7.07;;;;;;;4.20;65.16;101059.44;4982639;28;20165;-73
2023/03/18 00:56:33;;;;;;;18.02;9.02;;;;;;;4.21;65.59;101061.19;4977281;28;20049;-73
2023/03/18 00:59:01;;;;;;;15.45;6.10;;;;;;;4.20;65.59;101054.25;4982056;28;20066;-73
2023/03/18 01:01:29;;;;;;;18.00;6.80;;;;;;;4.21;65.42;101053.44;4987789;28;20470;-73
2023/03/18 01:03:56;;;;;;;20.20;6.25;;;;;;;4.23;65.41;101067.22;4977212;28;20055;-73
2023/03/18 01:06:29;;;;;;;21.55;7.13;;;;;;;4.25;65.54;101065.53;4973876;28;20042;-72
2023/03/18 01:08:57;;;;;;;26.02;8.57;;;;;;;4.22;65.52;101055.16;4982765;28;20495;-73
2023/03/18 01:11:25;;;;;;;13.63;6.70;;;;;;;4.24;65.68;101058.66;4979575;28;20061;-73
2023/03/18 01:13:52;;;;;;;24.50;7.03;;;;;;;4.26;65.75;101056.91;4984449;28;20077;-73
2023/03/18 01:16:22;;;;;;;19.20;8.20;;;;;;;4.26;65.52;101040.53;4987033;28;20102;-73
2023/03/18 01:18:49;;;;;;;17.30;6.00;;;;;;;4.26;65.50;101040.53;4984032;28;20047;-73
2023/03/18 01:21:17;;;;;;;15.77;6.40;;;;;;;4.28;65.48;101044.03;4967750;28;20789;-73
2023/03/18 01:23:44;;;;;;;24.02;6.85;;;;;;;4.28;65.25;101042.31;4977799;28;20034;-73
2023/03/18 01:26:11;;;;;;;15.85;6.32;;;;;;;4.28;65.40;101042.31;4971448;28;20050;-73
2023/03/18 01:28:38;;;;;;;15.52;5.97;;;;;;;4.29;65.47;101036.25;4984048;28;20458;-74
2023/03/18 01:31:06;;;;;;;16.92;6.68;;;;;;;4.30;65.37;101032.00;4974455;28;20396;-74
2023/03/18 01:33:35;;;;;;;13.73;6.70;;;;;;;4.31;65.43;101030.25;4981084;28;20884;-73
2023/03/18 01:36:03;;;;;;;18.88;7.22;;;;;;;4.31;65.41;101023.38;4979279;28;20058;-73
2023/03/18 01:38:31;;;;;;;20.33;7.57;;;;;;;4.33;65.43;101031.16;4972653;28;20426;-73
2023/03/18 01:40:58;;;;;;;21.23;7.00;;;;;;;4.32;65.49;101029.41;4986011;28;20058;-73
2023/03/18 01:43:27;;;;;;;25.42;7.82;;;;;;;4.31;65.48;101018.19;4983082;28;20410;-73
2023/03/18 01:45:55;;;;;;;20.75;7.45;;;;;;;4.33;65.72;101025.97;4971405;28;20058;-73
2023/03/18 01:48:25;;;;;;;26.05;8.45;;;;;;;4.32;65.71;101003.53;4976653;28;20513;-74
2023/03/18 01:50:58;;;;;;;30.52;8.80;;;;;;;4.33;66.10;101019.09;4963554;28;20050;-73
2023/03/18 01:53:28;;;;;;;21.38;8.18;;;;;;;4.34;65.91;101014.78;4983192;28;20054;-73
2023/03/18 01:55:56;;;;;;;21.45;7.32;;;;;;;4.33;66.23;101006.16;4974978;28;20047;-74
2023/03/18 01:58:28;;;;;;;20.80;7.65;;;;;;;4.33;66.41;101006.16;4980510;28;20055;-73
2023/03/18 02:01:01;;;;;;;19.90;6.88;;;;;;;4.33;65.92;101003.56;4973105;28;20066;-73
2023/03/18 02:03:28;;;;;;;20.13;7.97;;;;;;;4.35;66.29;101008.75;4982880;28;20579;-73
2023/03/18 02:05:57;;;;;;;24.45;9.10;;;;;;;4.36;66.42;101010.50;4976975;28;20104;-73
2023/03/18 02:08:23;;;;;;;21.25;7.22;;;;;;;4.36;66.30;101001.00;4977906;28;20517;-75
2023/03/18 02:10:50;;;;;;;16.20;8.18;;;;;;;4.37;66.20;101004.47;4986001;28;20050;-74
2023/03/18 02:13:18;;;;;;;18.98;7.03;;;;;;;4.37;66.20;101012.22;4969364;28;21081;-74
2023/03/18 02:15:51;;;;;;;22.10;7.55;;;;;;;4.37;66.27;101013.09;4984578;28;20065;-73
2023/03/18 02:18:20;;;;;;;19.77;7.47;;;;;;;4.37;66.25;101012.22;4978929;28;20844;-74
2023/03/18 02:21:08;;;;;;;18.63;8.10;;;;;;;4.37;66.08;101012.22;4978130;28;20052;-73
2023/03/18 02:23:43;;;;;;;24.20;7.93;;;;;;;4.37;66.27;101010.50;4932292;28;20062;-74
2023/03/18 02:26:21;;;;;;;21.40;8.15;;;;;;;4.34;66.63;101007.03;4926277;28;20052;-73
2023/03/18 02:28:51;;;;;;;23.38;7.60;;;;;;;4.37;66.21;101019.97;4935259;28;20047;-73
2023/03/18 02:31:19;;;;;;;18.88;7.82;;;;;;;4.37;66.78;101017.41;4928433;28;20055;-73
2023/03/18 02:33:47;;;;;;;17.67;7.95;;;;;;;4.37;66.82;101019.97;4927794;28;20051;-74
2023/03/18 02:36:18;;;;;;;21.17;7.25;;;;;;;4.38;66.70;101024.28;4934012;28;20117;-73
2023/03/18 02:38:46;;;;;;;24.02;8.27;;;;;;;4.37;66.63;101025.16;4941532;28;20047;-74
2023/03/18 02:41:16;;;;;;;22.58;8.65;;;;;;;4.36;66.85;101013.94;4947524;28;20441;-74
2023/03/18 02:43:43;;;;;;;16.75;7.85;;;;;;;4.34;66.84;101022.53;4968305;28;20530;-74
2023/03/18 02:46:27;;;;;;;24.98;9.25;;;;;;;4.38;67.36;101024.28;4952645;28;20058;-73
2023/03/18 02:48:55;;;;;;;26.65;7.80;;;;;;;4.38;67.59;101019.13;4957512;28;20065;-74
2023/03/18 02:51:22;;;;;;;17.20;7.28;;;;;;;4.36;67.33;101028.59;4957274;28;20720;-73
2023/03/18 02:53:49;;;;;;;30.67;9.70;;;;;;;4.37;67.54;101025.16;4957254;28;20066;-73
2023/03/18 02:56:16;;;;;;;25.08;7.68;;;;;;;4.36;67.73;101021.72;4950231;28;20097;-74
2023/03/18 02:58:43;;;;;;;17.92;7.45;;;;;;;4.37;67.68;101027.75;4967354;28;20050;-74
2023/03/18 03:01:11;;;;;;;20.25;7.85;;;;;;;4.36;67.64;101023.44;4956124;28;20055;-73
2023/03/18 03:03:40;;;;;;;29.95;10.00;;;;;;;4.35;68.20;101030.28;4951566;28;20058;-74
2023/03/18 03:06:07;;;;;;;19.80;8.15;;;;;;;4.35;67.89;101029.44;4959697;28;20058;-74
2023/03/18 03:08:35;;;;;;;19.52;9.40;;;;;;;4.35;68.29;101034.59;4964618;28;20050;-74
2023/03/18 03:11:02;;;;;;;24.48;8.95;;;;;;;4.35;68.46;101034.59;4958856;28;20065;-74
2023/03/18 03:13:29;;;;;;;20.98;9.15;;;;;;;4.35;68.24;101027.72;4964715;28;20050;-74
2023/03/18 03:15:56;;;;;;;21.20;8.75;;;;;;;4.34;68.82;101023.41;4967047;28;20105;-74
2023/03/18 03:18:23;;;;;;;25.23;9.13;;;;;;;4.36;68.61;101015.66;4964381;28;20053;-68
2023/03/18 03:20:52;;;;;;;21.10;8.35;;;;;;;4.32;68.36;101019.06;4967845;28;20392;-69
2023/03/18 03:23:19;;;;;;;19.83;8.35;;;;;;;4.34;68.71;101019.94;4966404;28;20046;-69
2023/03/18 03:25:46;;;;;;;24.10;8.70;;;;;;;4.34;68.52;101023.41;4975978;28;20061;-69
2023/03/18 03:28:15;;;;;;;16.73;8.50;;;;;;;4.33;68.64;101019.09;4983959;28;20054;-69
2023/03/18 03:30:42;;;;;;;19.83;9.57;;;;;;;4.32;68.88;101019.91;4988066;28;20049;-69
2023/03/18 03:33:10;;;;;;;25.63;9.65;;;;;;;4.33;68.72;101021.69;4987167;28;20047;-69
2023/03/18 03:35:37;;;;;;;25.52;9.05;;;;;;;4.33;68.80;101018.22;4986291;28;20660;-69
2023/03/18 03:38:06;;;;;;;24.63;10.25;;;;;;;4.32;69.19;101025.09;4982745;28;20054;-69
2023/03/18 03:40:33;;;;;;;20.27;9.93;;;;;;;4.29;69.13;101028.50;4984639;28;20058;-69
2023/03/18 03:43:00;;;;;;;27.75;10.40;;;;;;;4.31;69.01;101025.94;4985518;28;20404;-69
2023/03/18 03:45:27;;;;;;;23.92;9.32;;;;;;;4.29;69.30;101038.84;4984194;28;20046;-69
2023/03/18 03:47:54;;;;;;;20.77;9.60;;;;;;;4.28;69.18;101029.38;4988478;28;20053;-80
2023/03/18 03:50:21;;;;;;;20.40;9.68;;;;;;;4.29;69.08;101025.06;4983536;28;20042;-79
2023/03/18 03:52:49;;;;;;;19.95;8.60;;;;;;;4.28;69.53;101031.97;4988172;28;20043;-81
2023/03/18 03:55:20;;;;;;;23.40;10.55;;;;;;;4.26;69.54;101025.03;4986155;28;20061;-80
2023/03/18 03:57:47;;;;;;;30.02;10.77;;;;;;;4.25;69.55;101029.34;4981798;28;20463;-80
2023/03/18 04:00:19;;;;;;;24.50;10.15;;;;;;;4.24;69.76;101021.53;4984250;28;20483;-79
2023/03/18 04:02:47;;;;;;;23.95;9.10;;;;;;;4.22;69.67;101024.13;4992752;28;20046;-79
2023/03/18 04:05:16;;;;;;;27.23;10.10;;;;;;;4.24;69.40;101022.44;4987620;28;20507;-80
2023/03/18 04:07:44;;;;;;;27.88;9.65;;;;;;;4.23;69.65;101019.81;4984684;28;20499;-80
2023/03/18 04:10:14;;;;;;;20.23;9.75;;;;;;;4.25;69.82;101024.16;4988343;28;20054;-80
2023/03/18 04:12:44;;;;;;;21.88;11.07;;;;;;;4.24;69.72;101025.03;4981813;28;20042;-80
2023/03/18 04:15:12;;;;;;;20.65;9.50;;;;;;;4.24;69.77;101024.13;4975801;28;20487;-79
2023/03/18 04:17:40;;;;;;;23.23;11.02;;;;;;;4.21;69.87;101014.66;4983789;28;20148;-80
2023/03/18 04:20:08;;;;;;;25.48;9.70;;;;;;;4.24;70.23;101017.28;4986854;28;20075;-79
2023/03/18 04:22:35;;;;;;;28.92;10.93;;;;;;;4.24;70.23;101018.97;4988883;28;20053;-79
2023/03/18 04:25:02;;;;;;;20.00;9.93;;;;;;;4.21;70.24;101019.81;4993455;28;20390;-79
2023/03/18 04:27:28;;;;;;;28.42;11.38;;;;;;;4.23;70.20;101017.25;4990958;28;20049;-79
2023/03/18 04:29:57;;;;;;;25.85;10.18;;;;;;;4.15;70.36;100999.03;4995070;28;20047;-79
2023/03/18 04:32:24;;;;;;;17.25;8.43;;;;;;;4.20;69.94;101009.44;4994870;28;20051;-79
2023/03/18 04:34:51;;;;;;;24.02;10.18;;;;;;;4.22;70.16;101018.97;4993829;28;20050;-79
2023/03/18 04:37:18;;;;;;;25.73;10.77;;;;;;;4.21;70.45;101024.09;4995659;28;20046;-79
2023/03/18 04:39:46;;;;;;;25.92;9.57;;;;;;;4.21;70.48;101025.00;4986014;28;20121;-80
2023/03/18 04:42:13;;;;;;;25.83;11.45;;;;;;;4.20;70.31;101018.06;4987865;28;20130;-79
2023/03/18 04:44:39;;;;;;;26.75;9.93;;;;;;;4.20;70.28;101018.06;4993482;28;20783;-79
2023/03/18 04:47:08;;;;;;;20.63;9.10;;;;;;;4.20;70.47;101007.72;4988924;28;20043;-79
2023/03/18 04:49:36;;;;;;;32.38;11.60;;;;;;;4.20;70.43;101018.06;4992102;28;20050;-79
2023/03/18 04:52:03;;;;;;;21.08;9.13;;;;;;;4.20;70.28;101010.31;4992169;28;20046;-79
2023/03/18 04:54:30;;;;;;;22.48;9.80;;;;;;;4.21;70.42;101017.25;4991558;28;20054;-79
2023/03/18 04:56:58;;;;;;;27.05;11.63;;;;;;;4.21;70.62;101019.81;4989168;28;20057;-79
2023/03/18 04:59:25;;;;;;;28.20;9.80;;;;;;;4.21;70.50;101013.75;4993314;28;20046;-78
2023/03/18 05:01:52;;;;;;;29.55;10.98;;;;;;;4.16;70.54;101003.38;4991640;28;20093;-79
2023/03/18 05:04:20;;;;;;;26.38;9.60;;;;;;;4.19;70.51;101012.91;4982898;28;20130;-79
2023/03/18 05:06:47;;;;;;;28.10;10.32;;;;;;;4.17;70.48;101015.44;4980480;28;20054;-79
2023/03/18 05:09:14;;;;;;;29.80;11.18;;;;;;;4.16;70.53;101013.72;4987834;28;20050;-79
2023/03/18 05:11:41;;;;;;;26.58;9.88;;;;;;;4.14;70.90;101015.41;4988199;28;20061;-78
2023/03/18 05:14:08;;;;;;;25.17;11.70;;;;;;;4.14;70.81;101010.25;4986981;28;20499;-78
2023/03/18 05:16:35;;;;;;;30.42;10.52;;;;;;;4.14;70.53;101009.38;4988934;28;20510;-79
2023/03/18 05:19:03;;;;;;;24.60;10.95;;;;;;;4.12;70.86;101001.59;4984582;28;20455;-79
2023/03/18 05:21:31;;;;;;;25.90;12.65;;;;;;;4.12;70.83;101006.75;4988128;28;20113;-79
2023/03/18 05:23:58;;;;;;;24.50;11.25;;;;;;;4.12;71.05;101011.06;4990694;28;20057;-78
2023/03/18 05:26:25;;;;;;;26.20;10.95;;;;;;;4.11;71.21;101015.38;4991052;28;20047;-79
2023/03/18 05:28:52;;;;;;;27.13;12.32;;;;;;;4.10;70.82;101024.00;4992470;28;20042;-79
2023/03/18 05:31:19;;;;;;;25.13;9.77;;;;;;;4.09;70.56;101011.91;4991902;28;20050;-78
2023/03/18 05:33:46;;;;;;;22.40;10.70;;;;;;;4.08;70.91;101017.94;4987867;28;20042;-78
2023/03/18 05:36:13;;;;;;;29.95;11.98;;;;;;;4.06;70.81;101017.03;4986147;28;20058;-78
2023/03/18 05:38:41;;;;;;;27.00;11.13;;;;;;;4.09;71.05;101016.22;4981387;28;20046;-79
2023/03/18 05:41:08;;;;;;;20.33;9.75;;;;;;;4.06;70.91;101022.22;4989574;28;20813;-78
2023/03/18 05:43:35;;;;;;;33.60;13.75;;;;;;;4.06;71.08;101033.41;4993811;28;20414;-78
2023/03/18 05:46:03;;;;;;;29.70;10.65;;;;;;;4.06;71.04;101024.78;4990165;28;20044;-79
2023/03/18 05:48:30;;;;;;;25.80;9.93;;;;;;;4.04;70.88;101029.97;4991951;28;20102;-80
2023/03/18 05:50:58;;;;;;;30.77;11.70;;;;;;;4.04;71.19;101029.06;4992672;28;20046;-81
2023/03/18 05:53:25;;;;;;;25.88;10.82;;;;;;;4.04;71.01;101023.91;4993097;28;20051;-81
2023/03/18 05:55:53;;;;;;;27.13;12.10;;;;;;;4.02;70.89;101020.44;4990652;28;20050;-80
2023/03/18 05:58:20;;;;;;;24.65;10.57;;;;;;;4.01;70.84;101019.59;4988016;28;20423;-79
2023/03/18 06:00:47;;;;;;;29.15;12.40;;;;;;;4.01;71.06;101016.09;4986882;28;20042;-79
2023/03/18 06:03:14;;;;;;;33.03;11.35;;;;;;;4.00;71.23;101017.84;4984481;28;20145;-80
2023/03/18 06:05:40;;;;;;;26.10;11.90;;;;;;;3.99;71.34;101018.69;4991780;28;20096;-79
2023/03/18 06:08:07;;;;;;;27.85;12.40;;;;;;;4.01;71.24;101023.88;4986348;28;20474;-78
2023/03/18 06:10:34;;;;;;;32.25;10.68;;;;;;;4.02;71.12;101023.91;4988971;28;20046;-78
2023/03/18 06:13:03;;;;;;;24.10;11.80;;;;;;;4.02;71.20;101023.03;4987117;28;20039;-78
2023/03/18 06:15:30;;;;;;;26.65;11.32;;;;;;;4.01;71.04;101016.09;4985734;28;20702;-77
2023/03/18 06:17:57;;;;;;;22.45;9.60;;;;;;;4.01;71.34;101023.88;4987846;28;20042;-78
2023/03/18 06:20:25;;;;;;;35.15;11.52;;;;;;;4.00;71.02;101016.97;4986941;28;20046;-79
2023/03/18 06:22:52;;;;;;;21.83;10.32;;;;;;;4.00;70.97;101012.66;4984180;28;20068;-79
2023/03/18 06:25:20;;;;;;;34.08;12.15;;;;;;;3.98;71.57;101001.44;4987111;28;20526;-78
2023/03/18 06:27:47;;;;;;;26.65;11.93;;;;;;;3.98;71.43;100998.84;4979691;28;20043;-77
2023/03/18 06:30:17;;;;;;;26.33;10.57;;;;;;;3.98;71.86;100992.81;4980819;28;20054;-77
2023/03/18 06:32:45;;;;;;;28.40;11.38;;;;;;;3.98;71.40;100992.81;4976389;28;20051;-77
2023/03/18 06:35:12;;;;;;;32.10;11.80;;;;;;;3.98;71.63;101004.00;4981135;28;20518;-77
2023/03/18 06:37:39;;;;;;;27.65;10.32;;;;;;;4.00;71.40;100985.94;4984813;28;20503;-77
2023/03/18 06:40:08;;;;;;;25.45;10.98;;;;;;;4.00;71.72;100980.78;4987600;28;20050;-77
2023/03/18 06:42:35;;;;;;;27.50;11.43;;;;;;;4.01;71.22;100985.97;4979172;28;20125;-77
2023/03/18 06:45:02;;;;;;;30.00;13.93;;;;;;;4.01;71.37;100992.84;4985483;28;20053;-77
2023/03/18 06:47:31;;;;;;;32.10;12.63;;;;;;;4.00;71.41;100988.53;4980387;28;20050;-77
2023/03/18 06:49:59;;;;;;;27.17;11.02;;;;;;;4.01;71.46;100988.56;4989503;28;20051;-76
2023/03/18 06:52:26;;;;;;;25.67;10.50;;;;;;;4.01;71.67;100995.44;4975836;28;20050;-77
2023/03/18 06:54:53;;;;;;;22.80;9.90;;;;;;;4.01;71.31;101003.19;4978512;28;20146;-76
2023/03/18 06:57:20;;;;;;;25.08;10.57;;;;;;;4.01;71.36;101004.06;4977911;28;20054;-77
2023/03/18 06:59:47;;;;;;;28.08;12.15;;;;;;;4.02;71.60;101010.13;4985138;28;20043;-77
2023/03/18 07:02:14;;;;;;;24.10;11.15;;;;;;;4.02;71.69;101002.34;4976546;28;20050;-77
2023/03/18 07:04:42;;;;;;;28.20;12.18;;;;;;;4.01;71.50;101000.59;4987554;28;20055;-76
2023/03/18 07:07:09;;;;;;;32.95;12.85;;;;;;;4.03;71.95;101009.25;4986130;28;20046;-77
2023/03/18 07:09:37;;;;;;;34.25;13.68;;;;;;;4.03;71.56;100997.19;4973729;28;20046;-77
2023/03/18 07:12:05;;;;;;;34.72;14.00;;;;;;;4.03;71.55;101001.50;4986379;28;20130;-81
2023/03/18 07:14:32;;;;;;;29.85;13.25;;;;;;;4.04;71.63;101009.28;4984329;28;20085;-77
2023/03/18 07:16:59;;;;;;;26.48;10.82;;;;;;;4.05;71.33;101023.06;4986229;28;20164;-77
2023/03/18 07:19:26;;;;;;;26.63;11.93;;;;;;;4.05;71.43;101030.81;4985044;28;20073;-76
2023/03/18 07:21:55;;;;;;;25.30;11.02;;;;;;;4.05;71.65;101038.56;4977517;28;20046;-77
2023/03/18 07:24:22;;;;;;;29.88;13.38;;;;;;;4.06;71.40;101033.41;4977306;28;20070;-77
2023/03/18 07:26:50;;;;;;;30.90;12.45;;;;;;;4.06;71.70;101038.59;4977206;28;20054;-76
2023/03/18 07:29:18;;;;;;;26.38;11.23;;;;;;;4.08;71.80;101041.19;4988658;28;20422;-76
2023/03/18 07:31:45;;;;;;;31.67;14.32;;;;;;;4.09;71.92;101037.75;4983329;28;20062;-76
2023/03/18 07:34:13;;;;;;;33.75;13.00;;;;;;;4.09;71.54;101039.47;4972618;28;20863;-77
2023/03/18 07:36:41;;;;;;;21.33;11.60;;;;;;;4.09;71.65;101037.75;4988012;28;20092;-76
2023/03/18 07:39:10;;;;;;;26.13;11.68;;;;;;;4.11;71.58;101036.06;4987880;28;20053;-75
2023/03/18 07:41:37;;;;;;;24.38;11.00;;;;;;;4.10;71.87;101038.63;4982364;28;20197;-76
2023/03/18 07:44:04;;;;;;;38.78;12.45;;;;;;;4.11;72.00;101041.25;4987209;28;20042;-77
2023/03/18 07:46:31;;;;;;;22.17;10.88;;;;;;;4.13;71.85;101036.97;4987376;28;20054;-76
2023/03/18 07:48:58;;;;;;;25.50;10.90;;;;;;;4.13;71.88;101038.69;4977643;28;20058;-77
2023/03/18 07:51:25;;;;;;;33.65;12.55;;;;;;;4.11;71.75;101038.66;4986420;28;20050;-77
2023/03/18 07:53:52;;;;;;;25.65;10.02;;;;;;;4.16;72.00;101046.47;4977595;28;20517;-77
2023/03/18 07:56:20;;;;;;;25.05;11.90;;;;;;;4.17;71.93;101041.31;4978457;28;20867;-77
2023/03/18 07:58:47;;;;;;;28.35;10.27;;;;;;;4.18;71.95;101037.84;4988960;28;20051;-77
2023/03/18 08:01:17;;;;;;;33.67;13.38;;;;;;;4.19;71.84;101043.94;4986027;28;20494;-78
2023/03/18 08:03:45;;;;;;;36.28;12.95;;;;;;;4.20;71.89;101045.66;4982026;28;20384;-77
2023/03/18 08:06:13;;;;;;;26.98;12.57;;;;;;;4.18;71.89;101037.84;4983576;28;20072;-76
2023/03/18 08:08:40;;;;;;;27.67;11.50;;;;;;;4.23;71.62;101046.53;4988728;28;20058;-77
2023/03/18 08:11:08;;;;;;;28.38;11.23;;;;;;;4.24;72.04;101043.13;4992724;28;20050;-77
2023/03/18 08:13:37;;;;;;;39.97;12.85;;;;;;;4.24;71.75;101045.72;4983947;28;20434;-77
2023/03/18 08:16:04;;;;;;;31.05;11.80;;;;;;;4.25;71.90;101037.09;4989167;28;20634;-76
2023/03/18 08:18:31;;;;;;;29.98;12.68;;;;;;;4.26;72.00;101041.41;4990219;28;20050;-77
2023/03/18 08:20:59;;;;;;;31.45;13.13;;;;;;;4.27;71.95;101045.75;4982550;28;20053;-78
2023/03/18 08:23:26;;;;;;;25.00;10.73;;;;;;;4.28;72.24;101036.25;4988830;28;20101;-78
2023/03/18 08:25:53;;;;;;;32.10;12.75;;;;;;;4.29;72.18;101030.22;4980829;28;20064;-78
2023/03/18 08:28:20;;;;;;;26.95;12.20;;;;;;;4.30;72.14;101039.75;4984481;28;20047;-78
2023/03/18 08:30:48;;;;;;;38.22;12.13;;;;;;;4.31;72.02;101033.72;4984286;28;20050;-77
2023/03/18 08:33:15;;;;;;;36.13;11.63;;;;;;;4.33;71.90;101041.50;4988909;28;20056;-77
2023/03/18 08:35:42;;;;;;;23.67;11.40;;;;;;;4.34;72.05;101036.34;4978685;28;20061;-77
2023/03/18 08:38:10;;;;;;;33.85;12.30;;;;;;;4.36;71.85;101031.19;4990363;28;20042;-78
2023/03/18 08:40:37;;;;;;;25.60;11.38;;;;;;;4.37;71.78;101027.75;4981018;28;20415;-77
2023/03/18 08:43:03;;;;;;;23.23;11.80;;;;;;;4.38;71.97;101034.63;4982235;28;20047;-77
2023/03/18 08:45:30;;;;;;;33.78;13.15;;;;;;;4.39;71.81;101032.09;4986735;28;20050;-77
2023/03/18 08:47:59;;;;;;;32.28;14.68;;;;;;;4.39;71.85;101026.91;4987419;28;20061;-77
2023/03/18 08:50:27;;;;;;;28.05;11.85;;;;;;;4.42;71.97;101033.84;4989537;28;20050;-77
2023/03/18 08:52:56;;;;;;;24.30;10.95;;;;;;;4.44;71.78;101035.59;4981507;28;20396;-77
2023/03/18 08:55:28;;;;;;;27.98;11.70;;;;;;;4.46;71.93;101022.66;4991502;28;20050;-77
2023/03/18 08:57:55;;;;;;;28.65;12.23;;;;;;;4.46;71.73;101031.28;4985860;28;20051;-77
2023/03/18 09:00:23;;;;;;;26.50;12.50;;;;;;;4.49;71.95;101033.03;4989958;28;20046;-76
2023/03/18 09:02:50;;;;;;;30.77;12.05;;;;;;;4.49;72.19;101028.72;4975049;28;20053;-78
2023/03/18 09:05:18;;;;;;;25.27;11.65;;;;;;;4.51;72.29;101031.34;4981957;28;20054;-77
2023/03/18 09:07:45;;;;;;;26.42;10.73;;;;;;;4.52;71.88;101030.47;4980163;28;20383;-78
2023/03/18 09:10:13;;;;;;;25.92;11.82;;;;;;;4.54;71.86;101026.19;4974653;28;20053;-78
2023/03/18 09:12:41;;;;;;;31.83;14.38;;;;;;;4.55;72.17;101029.66;4989452;28;20097;-77
2023/03/18 09:15:10;;;;;;;25.42;10.82;;;;;;;4.56;71.99;101031.41;4978830;28;20515;-78
2023/03/18 09:17:39;;;;;;;41.70;16.40;;;;;;;4.55;72.13;101025.34;4978236;28;20763;-78
2023/03/18 09:20:07;;;;;;;31.92;12.25;;;;;;;4.57;71.95;101025.38;4980153;28;20101;-78
2023/03/18 09:22:36;;;;;;;31.17;13.38;;;;;;;4.58;72.05;101025.41;4986739;28;20097;-78
2023/03/18 09:25:03;;;;;;;35.75;11.93;;;;;;;4.58;71.78;101033.16;4987823;28;20042;-76
2023/03/18 09:27:30;;;;;;;29.52;13.05;;;;;;;4.59;72.13;101042.63;4983491;28;20419;-76
2023/03/18 09:29:57;;;;;;;32.78;12.93;;;;;;;4.59;72.02;101028.84;4979149;28;20046;-76
2023/03/18 09:32:24;;;;;;;32.63;13.73;;;;;;;4.60;72.07;101035.75;4978564;28;20054;-79
2023/03/18 09:34:52;;;;;;;24.00;12.18;;;;;;;4.61;72.30;101035.78;4986092;28;20042;-75
2023/03/18 09:37:19;;;;;;;40.13;16.13;;;;;;;4.63;72.16;101035.78;4979405;28;20517;-76
2023/03/18 09:39:47;;;;;;;32.60;12.70;;;;;;;4.64;71.90;101038.38;4991270;28;20050;-76
2023/03/18 09:42:32;;;;;;;34.42;12.85;;;;;;;4.64;71.85;101038.38;4973413;28;20065;-79
2023/03/18 09:45:03;;;;;;;29.73;12.52;;;;;;;4.66;72.00;101041.84;4984234;28;20062;-77
2023/03/18 09:47:51;;;;;;;28.45;12.27;;;;;;;4.66;71.75;101047.00;4980958;28;20050;-77
2023/03/18 09:50:27;;;;;;;23.58;12.50;;;;;;;4.67;71.99;101043.59;4977813;28;20153;-79
2023/03/18 09:53:06;;;;;;;20.73;10.13;;;;;;;4.68;71.91;101045.31;4984912;28;20042;-76
2023/03/18 09:55:41;;;;;;;25.80;11.73;;;;;;;4.69;71.91;101049.63;4977744;28;20057;-76
2023/03/18 09:58:16;;;;;;;22.33;12.13;;;;;;;4.66;71.84;101041.84;4974770;28;20046;-78
2023/03/18 10:00:44;;;;;;;22.75;10.40;;;;;;;4.70;71.83;101048.78;4986440;28;20081;-77
2023/03/18 10:03:16;;;;;;;22.70;10.32;;;;;;;4.71;71.91;101047.06;4979201;28;20054;-78
2023/03/18 10:05:49;;;;;;;25.50;12.60;;;;;;;4.71;71.84;101055.69;4975230;28;20054;-78
2023/03/18 10:08:22;;;;;;;23.65;10.77;;;;;;;4.70;71.65;101048.78;4983004;28;20046;-78
2023/03/18 10:10:50;;;;;;;18.33;9.65;;;;;;;4.71;71.80;101050.50;4988799;28;20050;-79
2023/03/18 10:13:22;;;;;;;26.40;11.32;;;;;;;4.71;71.93;101049.66;4982861;28;20042;-77
2023/03/18 10:15:55;;;;;;;25.70;11.38;;;;;;;4.71;72.16;101049.66;4984077;28;20046;-77
2023/03/18 10:18:28;;;;;;;30.60;11.10;;;;;;;4.69;71.94;101036.69;4974984;28;20775;-77
2023/03/18 10:21:13;;;;;;;24.38;10.05;;;;;;;4.72;71.93;101041.03;4981967;28;20042;-77
2023/03/18 10:23:49;;;;;;;22.58;10.73;;;;;;;4.71;71.97;101040.16;4979132;28;20061;-78
2023/03/18 10:26:24;;;;;;;24.27;10.70;;;;;;;4.72;71.75;101039.34;4964397;28;20066;-78
2023/03/18 10:29:19;;;;;;;23.67;11.60;;;;;;;4.73;71.78;101038.47;4987328;28;20125;-77
2023/03/18 10:31:58;;;;;;;18.33;10.20;;;;;;;4.73;71.74;101041.06;4974529;28;20132;-78
2023/03/18 10:34:33;;;;;;;23.83;12.23;;;;;;;4.74;71.65;101035.00;4974406;28;20046;-78
2023/03/18 10:37:06;;;;;;;19.15;10.85;;;;;;;4.76;71.94;101036.78;4971952;28;20118;-77
2023/03/18 10:39:35;;;;;;;28.75;10.55;;;;;;;4.77;71.98;101035.91;4989244;28;20046;-77
2023/03/18 10:42:20;;;;;;;22.30;10.75;;;;;;;4.78;71.92;101040.22;4974241;28;20050;-77
2023/03/18 10:44:48;;;;;;;20.40;10.43;;;;;;;4.78;72.01;101040.22;4969073;28;20050;-77
2023/03/18 10:47:19;;;;;;;30.65;11.98;;;;;;;4.76;72.09;101029.88;4974984;28;20050;-78
2023/03/18 10:49:52;;;;;;;27.83;12.13;;;;;;;4.78;71.93;101035.94;4973208;28;20669;-76
2023/03/18 10:52:27;;;;;;;23.17;11.10;;;;;;;4.77;71.92;101028.16;4985029;28;20455;-77
2023/03/18 10:54:54;;;;;;;20.08;12.02;;;;;;;4.72;72.04;101026.41;4972233;28;20081;-77
2023/03/18 10:57:23;;;;;;;21.75;10.32;;;;;;;4.80;72.04;101033.34;4978772;28;20066;-77
2023/03/18 10:59:51;;;;;;;24.27;12.23;;;;;;;4.80;72.11;101034.22;4983086;28;20058;-77
2023/03/18 11:02:22;;;;;;;24.67;10.30;;;;;;;4.82;72.09;101029.06;4984607;28;20046;-77
2023/03/18 11:04:54;;;;;;;25.88;11.27;;;;;;;4.83;72.10;101029.06;4985109;28;20517;-77
2023/03/18 11:07:24;;;;;;;30.48;12.30;;;;;;;4.84;72.11;101030.81;4975171;28;20101;-77
2023/03/18 11:09:52;;;;;;;23.15;10.10;;;;;;;4.83;71.97;101021.28;4975924;28;20050;-77
2023/03/18 11:12:27;;;;;;;24.75;11.20;;;;;;;4.85;72.17;101021.31;4986061;28;20038;-77
2023/03/18 11:14:55;;;;;;;26.10;12.77;;;;;;;4.86;71.83;101023.91;4980152;28;20352;-77
2023/03/18 11:17:26;;;;;;;18.17;9.77;;;;;;;4.87;72.03;101024.81;4979283;28;20524;-77
2023/03/18 11:20:04;;;;;;;21.30;11.82;;;;;;;4.87;72.10;101032.56;4984521;28;20056;-77
2023/03/18 11:22:31;;;;;;;26.00;10.68;;;;;;;4.86;72.04;101026.50;4975794;28;20062;-76
2023/03/18 11:25:04;;;;;;;22.85;10.93;;;;;;;4.88;72.20;101018.75;4984238;28;20077;-76
2023/03/18 11:27:39;;;;;;;21.02;10.27;;;;;;;4.70;71.89;100989.28;4984408;28;20059;-77